createdAt,value
2023-04-24T00:00:18.634Z,6.50
2023-04-24T00:02:48.321Z,5.93
2023-04-24T00:05:18.325Z,6.00
2023-04-24T00:07:46.981Z,7.23
2023-04-24T00:10:14.869Z,7.20
2023-04-24T00:12:44.135Z,6.97
2023-04-24T00:15:12.696Z,7.73
2023-04-24T00:17:40.793Z,8.00
2023-04-24T00:20:11.333Z,7.53
2023-04-24T00:22:39.267Z,6.17
2023-04-24T00:25:08.028Z,8.00
2023-04-24T00:27:37.616Z,7.33
2023-04-24T00:30:08.506Z,5.53
2023-04-24T00:32:36.453Z,7.13
2023-04-24T00:35:04.812Z,6.07
2023-04-24T00:37:32.765Z,6.50
2023-04-24T00:40:00.753Z,9.93
2023-04-24T00:42:28.953Z,6.37
2023-04-24T00:44:58.519Z,7.33
2023-04-24T00:47:28.058Z,7.17
2023-04-24T00:49:56.834Z,7.10
2023-04-24T00:52:25.274Z,7.10
2023-04-24T00:54:53.217Z,6.20
2023-04-24T00:57:22.682Z,6.90
2023-04-24T00:59:50.751Z,7.57
2023-04-24T01:02:18.939Z,6.80
2023-04-24T01:04:48.436Z,6.37
2023-04-24T01:07:16.379Z,6.90
2023-04-24T01:09:44.641Z,8.97
2023-04-24T01:12:12.636Z,6.57
2023-04-24T01:14:40.699Z,6.23
2023-04-24T01:17:10.176Z,6.50
2023-04-24T01:19:38.166Z,6.57
2023-04-24T01:22:12.619Z,5.87
2023-04-24T01:24:40.729Z,6.40
2023-04-24T01:27:09.333Z,7.10
2023-04-24T01:29:37.425Z,7.90
2023-04-24T01:32:06.409Z,7.70
2023-04-24T01:34:34.596Z,6.57
2023-04-24T01:37:03.068Z,6.20
2023-04-24T01:39:34.355Z,6.50
2023-04-24T01:42:03.247Z,6.53
2023-04-24T01:44:31.220Z,8.50
2023-04-24T01:46:59.306Z,7.23
2023-04-24T01:49:27.243Z,7.00
2023-04-24T01:51:55.102Z,7.13
2023-04-24T01:54:23.291Z,7.50
2023-04-24T01:56:52.963Z,7.30
2023-04-24T01:59:23.672Z,8.10
2023-04-24T02:01:52.002Z,9.40
2023-04-24T02:04:20.844Z,6.80
2023-04-24T02:06:49.646Z,8.70
2023-04-24T02:09:17.667Z,7.10
2023-04-24T02:11:46.036Z,6.50
2023-04-24T02:14:15.247Z,7.30
2023-04-24T02:16:43.397Z,7.30
2023-04-24T02:19:11.523Z,8.13
2023-04-24T02:21:39.383Z,7.57
2023-04-24T02:24:10.125Z,7.33
2023-04-24T02:26:38.057Z,7.10
2023-04-24T02:29:06.177Z,6.93
2023-04-24T02:31:35.827Z,7.97
2023-04-24T02:34:03.806Z,9.00
2023-04-24T02:36:32.613Z,7.63
2023-04-24T02:39:00.574Z,7.80
2023-04-24T02:41:32.569Z,9.77
2023-04-24T02:44:00.969Z,7.23
2023-04-24T02:46:28.903Z,7.23
2023-04-24T02:48:58.362Z,6.23
2023-04-24T02:51:26.229Z,7.77
2023-04-24T02:53:54.110Z,9.63
2023-04-24T02:56:22.150Z,6.97
2023-04-24T02:58:50.096Z,7.30
2023-04-24T03:01:18.881Z,7.53
2023-04-24T03:03:47.010Z,24.77
2023-04-24T03:06:16.547Z,7.80
2023-04-24T03:08:44.405Z,6.87
2023-04-24T03:11:12.859Z,6.63
2023-04-24T03:13:40.784Z,7.60
2023-04-24T03:16:08.682Z,6.80
2023-04-24T03:18:36.591Z,9.80
2023-04-24T03:21:06.117Z,7.57
2023-04-24T03:23:35.603Z,7.07
2023-04-24T03:26:03.848Z,7.03
2023-04-24T03:28:32.805Z,8.83
2023-04-24T03:31:06.005Z,7.00
2023-04-24T03:33:37.258Z,7.00
2023-04-24T03:36:06.414Z,7.20
2023-04-24T03:38:42.425Z,7.23
2023-04-24T03:41:29.693Z,9.40
2023-04-24T03:44:05.276Z,6.53
2023-04-24T03:46:33.295Z,7.53
2023-04-24T03:49:03.324Z,7.33
2023-04-24T03:51:36.725Z,7.20
2023-04-24T03:54:19.527Z,7.30
2023-04-24T03:56:48.106Z,6.70
2023-04-24T03:59:16.306Z,8.13
2023-04-24T04:01:48.596Z,7.30
2023-04-24T04:04:18.501Z,7.33
2023-04-24T04:06:47.783Z,7.03
2023-04-24T04:09:16.035Z,7.70
2023-04-24T04:11:45.353Z,7.57
2023-04-24T04:14:13.983Z,8.07
2023-04-24T04:16:46.087Z,8.70
2023-04-24T04:19:14.606Z,7.40
2023-04-24T04:21:43.127Z,7.70
2023-04-24T04:24:23.442Z,6.10
2023-04-24T04:26:57.501Z,7.83
2023-04-24T04:29:41.336Z,14.37
2023-04-24T04:32:12.013Z,9.93
2023-04-24T04:34:40.725Z,7.17
2023-04-24T04:37:12.133Z,8.03
2023-04-24T04:40:07.146Z,8.40
2023-04-24T04:42:41.904Z,7.10
2023-04-24T04:45:12.486Z,9.23
2023-04-24T04:47:56.088Z,8.07
2023-04-24T04:50:24.297Z,7.53
2023-04-24T04:53:01.016Z,9.80
2023-04-24T04:55:33.993Z,12.43
2023-04-24T04:58:14.514Z,8.70
2023-04-24T05:00:42.833Z,9.73
2023-04-24T05:03:23.658Z,8.13
2023-04-24T05:05:59.569Z,11.50
2023-04-24T05:08:28.157Z,7.90
2023-04-24T05:10:57.177Z,11.97
2023-04-24T05:13:39.210Z,8.43
2023-04-24T05:16:13.874Z,8.90
2023-04-24T05:18:42.448Z,11.30
2023-04-24T05:21:13.264Z,7.73
2023-04-24T05:23:43.864Z,8.63
2023-04-24T05:26:13.202Z,9.83
2023-04-24T05:28:44.140Z,8.63
2023-04-24T05:31:14.626Z,8.40
2023-04-24T05:33:42.815Z,9.30
2023-04-24T05:36:11.207Z,7.57
2023-04-24T05:38:39.086Z,7.93
2023-04-24T05:41:07.241Z,8.23
2023-04-24T05:43:35.151Z,8.17
2023-04-24T05:46:04.495Z,8.90
2023-04-24T05:48:32.688Z,8.00
2023-04-24T05:51:03.240Z,9.73
2023-04-24T05:53:31.454Z,9.97
2023-04-24T05:55:59.720Z,11.63
2023-04-24T05:58:28.086Z,12.93
2023-04-24T06:00:56.390Z,10.50
2023-04-24T06:03:25.937Z,9.63
2023-04-24T06:05:53.956Z,9.27
2023-04-24T06:08:23.577Z,10.57
2023-04-24T06:10:51.725Z,7.87
2023-04-24T06:13:21.674Z,12.40
2023-04-24T06:16:12.607Z,8.40
2023-04-24T06:18:44.586Z,7.47
2023-04-24T06:21:12.685Z,9.73
2023-04-24T06:23:40.729Z,9.60
2023-04-24T06:26:08.612Z,7.83
2023-04-24T06:28:36.493Z,8.07
2023-04-24T06:31:06.260Z,7.47
2023-04-24T06:33:34.216Z,7.10
2023-04-24T06:36:05.031Z,7.13
2023-04-24T06:38:32.933Z,8.90
2023-04-24T06:41:00.872Z,7.70
2023-04-24T06:43:28.732Z,10.67
2023-04-24T06:45:58.262Z,9.77
2023-04-24T06:48:26.780Z,7.37
2023-04-24T06:50:54.763Z,7.40
2023-04-24T06:53:24.062Z,7.10
2023-04-24T06:55:51.930Z,7.80
2023-04-24T06:58:19.942Z,8.23
2023-04-24T07:00:47.911Z,7.40
2023-04-24T07:03:16.018Z,10.10
2023-04-24T07:05:44.113Z,9.00
2023-04-24T07:08:12.766Z,6.80
2023-04-24T07:10:42.071Z,10.07
2023-04-24T07:13:10.276Z,12.00
2023-04-24T07:15:38.303Z,9.97
2023-04-24T07:18:06.412Z,6.50
2023-04-24T07:20:35.405Z,7.83
2023-04-24T07:23:03.929Z,7.43
2023-04-24T07:25:32.338Z,7.57
2023-04-24T07:28:01.927Z,6.43
2023-04-24T07:30:30.346Z,7.80
2023-04-24T07:32:58.367Z,7.67
2023-04-24T07:35:26.990Z,7.77
2023-04-24T07:37:55.142Z,9.63
2023-04-24T07:40:23.699Z,7.73
2023-04-24T07:42:51.780Z,6.47
2023-04-24T07:45:21.477Z,8.07
2023-04-24T07:47:49.463Z,7.27
2023-04-24T07:50:17.562Z,10.07
2023-04-24T07:52:45.459Z,9.47
2023-04-24T07:55:13.420Z,7.13
2023-04-24T07:57:41.343Z,7.93
2023-04-24T08:00:10.284Z,7.63
2023-04-24T08:02:42.497Z,8.90
2023-04-24T08:05:11.258Z,12.43
2023-04-24T08:07:40.490Z,8.67
2023-04-24T08:10:09.684Z,9.90
2023-04-24T08:12:37.886Z,8.60
2023-04-24T08:15:06.758Z,9.47
2023-04-24T08:17:34.735Z,8.10
2023-04-24T08:20:04.884Z,10.50
2023-04-24T08:22:33.296Z,8.20
2023-04-24T08:25:02.578Z,13.63
2023-04-24T08:27:30.506Z,10.13
2023-04-24T08:29:59.513Z,8.97
2023-04-24T08:32:28.955Z,9.57
2023-04-24T08:34:57.416Z,10.20
2023-04-24T08:37:28.148Z,8.57
2023-04-24T08:39:56.182Z,15.70
2023-04-24T08:42:24.365Z,31.17
2023-04-24T08:44:52.391Z,17.70
2023-04-24T08:47:22.675Z,9.97
2023-04-24T08:49:52.505Z,11.80
2023-04-24T08:52:21.100Z,8.43
2023-04-24T08:54:50.480Z,10.57
2023-04-24T08:57:18.883Z,10.50
2023-04-24T08:59:47.569Z,9.70
2023-04-24T09:02:16.321Z,8.07
2023-04-24T09:04:45.833Z,9.70
2023-04-24T09:07:14.703Z,8.63
2023-04-24T09:09:43.793Z,8.20
2023-04-24T09:12:13.853Z,9.20
2023-04-24T09:14:45.994Z,7.80
2023-04-24T09:17:14.390Z,8.57
2023-04-24T09:19:42.877Z,7.73
2023-04-24T09:22:12.182Z,11.80
2023-04-24T09:24:40.779Z,8.77
2023-04-24T09:27:11.249Z,10.07
2023-04-24T09:29:40.826Z,8.30
2023-04-24T09:32:30.955Z,8.30
2023-04-24T09:35:13.538Z,9.87
2023-04-24T09:37:43.400Z,13.03
2023-04-24T09:40:17.486Z,22.30
2023-04-24T09:42:47.203Z,13.33
2023-04-24T09:45:16.544Z,10.37
2023-04-24T09:47:45.062Z,7.67
2023-04-24T09:50:15.385Z,9.80
2023-04-24T09:52:45.151Z,9.63
2023-04-24T09:55:14.533Z,11.37
2023-04-24T09:57:55.713Z,13.37
2023-04-24T10:00:29.592Z,9.00
2023-04-24T10:02:59.273Z,9.03
2023-04-24T10:05:29.956Z,8.17
2023-04-24T10:08:04.279Z,10.17
2023-04-24T10:10:32.664Z,8.20
2023-04-24T10:13:01.624Z,8.20
2023-04-24T10:15:31.252Z,8.00
2023-04-24T10:18:01.003Z,14.60
2023-04-24T10:20:32.054Z,9.80
2023-04-24T10:23:01.005Z,9.53
2023-04-24T10:25:30.266Z,11.00
2023-04-24T10:28:00.631Z,11.63
2023-04-24T10:30:31.642Z,10.23
2023-04-24T10:33:01.688Z,16.70
2023-04-24T10:35:33.232Z,10.47
2023-04-24T10:38:05.184Z,9.60
2023-04-24T10:40:35.078Z,9.20
2023-04-24T10:43:07.152Z,10.47
2023-04-24T10:45:36.694Z,10.73
2023-04-24T10:48:07.386Z,17.83
2023-04-24T10:50:46.057Z,9.63
2023-04-24T10:53:19.235Z,8.93
2023-04-24T10:55:49.888Z,12.37
2023-04-24T10:58:18.847Z,19.20
2023-04-24T11:00:59.143Z,12.93
2023-04-24T11:03:29.274Z,14.27
2023-04-24T11:05:58.955Z,14.73
2023-04-24T11:08:29.426Z,14.83
2023-04-24T11:11:00.214Z,10.20
2023-04-24T11:13:50.444Z,13.93
2023-04-24T11:16:30.124Z,12.23
2023-04-24T11:19:03.892Z,13.47
2023-04-24T11:21:42.793Z,15.53
2023-04-24T11:24:31.869Z,16.33
2023-04-24T11:27:02.566Z,18.43
2023-04-24T11:30:02.113Z,20.00
2023-04-24T11:32:33.044Z,24.10
2023-04-24T11:35:03.225Z,15.50
2023-04-24T11:37:36.486Z,16.50
2023-04-24T11:40:07.108Z,15.43
2023-04-24T11:42:39.042Z,15.73
2023-04-24T11:45:11.538Z,12.53
2023-04-24T11:47:41.891Z,14.37
2023-04-24T11:50:12.082Z,16.43
2023-04-24T11:52:41.463Z,22.07
2023-04-24T11:55:11.081Z,14.93
2023-04-24T11:57:39.010Z,18.90
2023-04-24T12:00:09.263Z,13.70
2023-04-24T12:02:41.845Z,17.43
2023-04-24T12:05:12.985Z,16.70
2023-04-24T12:07:44.121Z,14.20
2023-04-24T12:10:12.365Z,12.87
2023-04-24T12:12:40.343Z,13.07
2023-04-24T12:15:10.516Z,14.80
2023-04-24T12:17:42.792Z,10.30
2023-04-24T12:20:14.599Z,13.30
2023-04-24T12:22:47.462Z,22.00
2023-04-24T12:25:16.759Z,11.03
2023-04-24T12:27:45.991Z,13.33
2023-04-24T12:30:16.136Z,15.23
2023-04-24T12:32:45.383Z,11.90
2023-04-24T12:35:14.879Z,13.00
2023-04-24T12:37:47.220Z,14.00
2023-04-24T12:40:16.415Z,11.87
2023-04-24T12:42:45.384Z,13.00
2023-04-24T12:45:14.034Z,12.80
2023-04-24T12:47:43.064Z,12.37
2023-04-24T12:50:13.251Z,18.00
2023-04-24T12:52:43.257Z,14.50
2023-04-24T12:55:13.035Z,15.60
2023-04-24T12:57:46.428Z,12.17
2023-04-24T13:00:15.754Z,14.07
2023-04-24T13:02:45.233Z,14.67
2023-04-24T13:05:14.762Z,12.80
2023-04-24T13:07:44.091Z,12.60
2023-04-24T13:10:12.388Z,11.93
2023-04-24T13:12:41.225Z,13.17
2023-04-24T13:15:09.817Z,10.70
2023-04-24T13:17:37.721Z,10.67
2023-04-24T13:20:06.872Z,10.07
2023-04-24T13:22:35.169Z,11.67
2023-04-24T13:25:06.883Z,12.10
2023-04-24T13:27:35.054Z,12.77
2023-04-24T13:30:03.037Z,11.80
2023-04-24T13:32:31.614Z,11.60
2023-04-24T13:34:59.597Z,13.07
2023-04-24T13:37:27.527Z,11.10
2023-04-24T13:39:55.584Z,16.40
2023-04-24T13:42:24.855Z,10.40
2023-04-24T13:44:53.041Z,9.43
2023-04-24T13:47:20.901Z,13.90
2023-04-24T13:49:48.761Z,13.77
2023-04-24T13:52:16.775Z,10.20
2023-04-24T13:54:44.630Z,9.00
2023-04-24T13:57:12.829Z,7.23
2023-04-24T13:59:42.088Z,7.93
2023-04-24T14:02:10.168Z,7.80
2023-04-24T14:04:38.450Z,7.20
2023-04-24T14:07:06.581Z,6.50
2023-04-24T14:09:34.399Z,12.10
2023-04-24T14:12:02.880Z,5.57
2023-04-24T14:14:31.424Z,6.00
2023-04-24T14:17:00.739Z,5.83
2023-04-24T14:19:28.674Z,7.00
2023-04-24T14:21:57.740Z,5.80
2023-04-24T14:24:25.641Z,7.07
2023-04-24T14:26:53.793Z,5.73
2023-04-24T14:29:21.859Z,9.47
2023-04-24T14:31:49.906Z,7.50
2023-04-24T14:34:19.259Z,6.70
2023-04-24T14:36:47.241Z,6.40
2023-04-24T14:39:15.124Z,6.63
2023-04-24T14:41:43.041Z,7.57
2023-04-24T14:44:11.548Z,6.60
2023-04-24T14:46:39.623Z,6.87
2023-04-24T14:49:10.563Z,8.03
2023-04-24T14:51:40.076Z,7.70
2023-04-24T14:54:08.008Z,9.30
2023-04-24T14:56:35.950Z,6.40
2023-04-24T14:59:05.023Z,6.80
2023-04-24T15:01:32.850Z,7.93
2023-04-24T15:04:00.860Z,15.17
2023-04-24T15:06:28.986Z,14.10
2023-04-24T15:08:58.278Z,10.77
2023-04-24T15:11:26.188Z,7.73
2023-04-24T15:13:54.124Z,6.57
2023-04-24T15:16:22.249Z,6.53
2023-04-24T15:18:50.177Z,6.33
2023-04-24T15:21:18.105Z,6.50
2023-04-24T15:23:46.182Z,6.00
2023-04-24T15:26:15.650Z,6.23
2023-04-24T15:28:43.861Z,5.47
2023-04-24T15:31:11.825Z,5.80
2023-04-24T15:33:39.741Z,6.10
2023-04-24T15:36:08.001Z,6.00
2023-04-24T15:38:35.968Z,5.60
2023-04-24T15:41:03.861Z,5.87
2023-04-24T15:43:35.154Z,5.67
2023-04-24T15:46:03.551Z,8.10
2023-04-24T15:48:31.655Z,6.83
2023-04-24T15:50:59.760Z,7.00
2023-04-24T15:53:28.363Z,6.87
2023-04-24T15:55:57.039Z,7.83
2023-04-24T15:58:25.017Z,7.87
2023-04-24T16:00:54.788Z,14.13
2023-04-24T16:03:23.259Z,13.20
2023-04-24T16:05:51.605Z,9.23
2023-04-24T16:08:19.479Z,9.40
2023-04-24T16:10:47.344Z,9.20
2023-04-24T16:13:15.698Z,9.73
2023-04-24T16:15:43.725Z,8.77
2023-04-24T16:18:13.095Z,7.43
2023-04-24T16:20:41.279Z,8.07
2023-04-24T16:23:09.179Z,7.87
2023-04-24T16:25:37.175Z,10.00
2023-04-24T16:28:05.220Z,11.60
2023-04-24T16:30:33.314Z,9.60
2023-04-24T16:33:05.530Z,7.73
2023-04-24T16:35:34.952Z,7.40
2023-04-24T16:38:03.334Z,8.30
2023-04-24T16:40:31.465Z,16.43
2023-04-24T16:42:59.364Z,7.73
2023-04-24T16:45:27.439Z,7.13
2023-04-24T16:47:55.471Z,6.80
2023-04-24T16:50:23.393Z,6.70
2023-04-24T16:52:52.613Z,6.77
2023-04-24T16:55:20.508Z,5.97
2023-04-24T16:57:48.464Z,6.33
2023-04-24T17:00:17.317Z,8.80
2023-04-24T17:02:48.513Z,7.60
2023-04-24T17:05:16.643Z,8.97
2023-04-24T17:07:44.510Z,10.43
2023-04-24T17:10:13.740Z,9.17
2023-04-24T17:12:41.582Z,8.60
2023-04-24T17:15:10.048Z,7.37
2023-04-24T17:17:37.985Z,6.93
2023-04-24T17:20:18.629Z,7.23
2023-04-24T17:22:50.511Z,9.17
2023-04-24T17:25:20.087Z,7.60
2023-04-24T17:27:48.180Z,7.90
2023-04-24T17:30:17.575Z,7.27
2023-04-24T17:32:45.683Z,11.30
2023-04-24T17:35:13.719Z,9.57
2023-04-24T17:37:41.677Z,11.23
2023-04-24T17:40:10.625Z,8.63
2023-04-24T17:42:41.503Z,7.83
2023-04-24T17:45:10.904Z,7.17
2023-04-24T17:47:38.876Z,7.77
2023-04-24T17:50:07.796Z,7.53
2023-04-24T17:52:36.518Z,8.20
2023-04-24T17:55:04.837Z,9.50
2023-04-24T17:57:32.765Z,10.23
2023-04-24T18:00:02.050Z,7.80
2023-04-24T18:02:34.203Z,8.57
2023-04-24T18:05:02.255Z,8.57
2023-04-24T18:07:30.460Z,9.83
2023-04-24T18:09:58.711Z,10.30
2023-04-24T18:12:27.297Z,11.83
2023-04-24T18:15:06.719Z,9.83
2023-04-24T18:17:45.070Z,11.10
2023-04-24T18:20:14.429Z,12.23
2023-04-24T18:22:43.180Z,17.37
2023-04-24T18:25:11.794Z,18.13
2023-04-24T18:27:40.571Z,18.27
2023-04-24T18:30:14.193Z,20.70
2023-04-24T18:32:44.264Z,21.70
2023-04-24T18:35:12.287Z,20.50
2023-04-24T18:37:40.664Z,21.40
2023-04-24T18:40:10.071Z,22.30
2023-04-24T18:42:38.078Z,22.10
2023-04-24T18:45:07.277Z,21.70
2023-04-24T18:47:35.890Z,20.70
2023-04-24T18:50:05.556Z,20.57
2023-04-24T18:52:33.674Z,21.80
2023-04-24T18:55:03.512Z,20.60
2023-04-24T18:57:31.461Z,22.60
2023-04-24T18:59:59.579Z,18.93
2023-04-24T19:02:27.946Z,18.33
2023-04-24T19:04:56.072Z,17.90
2023-04-24T19:07:25.305Z,40.53
2023-04-24T19:09:53.301Z,62.27
2023-04-24T19:12:22.733Z,44.53
2023-04-24T19:14:51.772Z,25.17
2023-04-24T19:17:23.564Z,21.30
2023-04-24T19:19:52.206Z,21.33
2023-04-24T19:22:20.674Z,21.17
2023-04-24T19:24:49.930Z,20.60
2023-04-24T19:27:17.815Z,21.77
2023-04-24T19:29:46.041Z,18.53
2023-04-24T19:32:14.011Z,15.13
2023-04-24T19:34:41.893Z,14.87
2023-04-24T19:37:09.961Z,14.57
2023-04-24T19:39:37.869Z,15.17
2023-04-24T19:42:07.787Z,15.30
2023-04-24T19:44:36.031Z,15.33
2023-04-24T19:47:04.233Z,17.77
2023-04-24T19:49:32.297Z,15.63
2023-04-24T19:52:00.233Z,14.93
2023-04-24T19:54:28.808Z,22.57
2023-04-24T19:56:57.003Z,13.60
2023-04-24T19:59:26.481Z,13.83
2023-04-24T20:01:55.041Z,14.03
2023-04-24T20:04:24.074Z,14.70
2023-04-24T20:06:52.060Z,13.20
2023-04-24T20:09:19.908Z,13.00
2023-04-24T20:11:51.017Z,14.50
2023-04-24T20:14:18.990Z,11.90
2023-04-24T20:16:48.199Z,11.83
2023-04-24T20:19:16.106Z,9.80
2023-04-24T20:21:44.180Z,9.10
2023-04-24T20:24:12.223Z,9.90
2023-04-24T20:26:40.564Z,8.97
2023-04-24T20:29:08.802Z,10.30
2023-04-24T20:31:36.855Z,8.20
2023-04-24T20:34:06.624Z,7.50
2023-04-24T20:36:34.712Z,7.90
2023-04-24T20:39:04.904Z,9.60
2023-04-24T20:41:33.369Z,9.47
2023-04-24T20:44:01.747Z,9.03
2023-04-24T20:46:29.828Z,7.37
2023-04-24T20:48:57.809Z,8.57
2023-04-24T20:51:28.240Z,7.00
2023-04-24T20:53:56.146Z,8.37
2023-04-24T20:56:24.740Z,7.37
2023-04-24T20:58:55.342Z,7.63
2023-04-24T21:01:24.860Z,6.43
2023-04-24T21:03:53.365Z,6.73
2023-04-24T21:06:21.839Z,5.90
2023-04-24T21:08:51.205Z,6.47
2023-04-24T21:11:19.064Z,5.77
2023-04-24T21:13:47.057Z,5.80
2023-04-24T21:16:15.338Z,5.03
2023-04-24T21:18:43.273Z,5.90
2023-04-24T21:21:11.347Z,6.00
2023-04-24T21:23:39.236Z,6.47
2023-04-24T21:26:08.686Z,6.80
2023-04-24T21:28:37.418Z,7.20
2023-04-24T21:31:05.342Z,4.83
2023-04-24T21:33:33.319Z,5.33
2023-04-24T21:36:01.246Z,4.60
2023-04-24T21:38:29.175Z,4.50
2023-04-24T21:40:57.266Z,3.83
2023-04-24T21:43:37.176Z,3.33
2023-04-24T21:46:11.773Z,3.17
2023-04-24T21:48:39.687Z,3.10
2023-04-24T21:51:07.561Z,3.50
2023-04-24T21:53:35.471Z,3.23
2023-04-24T21:56:03.459Z,4.13
2023-04-24T21:58:32.907Z,3.50
2023-04-24T22:01:00.885Z,3.33
2023-04-24T22:03:29.753Z,3.77
2023-04-24T22:05:57.814Z,4.17
2023-04-24T22:08:30.159Z,3.50
2023-04-24T22:10:58.112Z,4.73
2023-04-24T22:13:25.971Z,3.70
2023-04-24T22:15:56.233Z,3.87
2023-04-24T22:18:33.404Z,3.83
2023-04-24T22:21:05.359Z,4.07
2023-04-24T22:23:33.437Z,3.60
2023-04-24T22:26:01.328Z,3.90
2023-04-24T22:28:29.175Z,4.00
2023-04-24T22:30:58.541Z,3.87
2023-04-24T22:33:26.566Z,3.47
2023-04-24T22:35:54.654Z,9.17
2023-04-24T22:38:22.550Z,5.13
2023-04-24T22:40:50.829Z,4.63
2023-04-24T22:43:18.794Z,4.70
2023-04-24T22:45:46.630Z,4.97
2023-04-24T22:48:16.371Z,4.77
2023-04-24T22:50:44.204Z,4.60
2023-04-24T22:53:12.110Z,5.50
2023-04-24T22:55:40.118Z,4.63
2023-04-24T22:58:08.298Z,5.93
2023-04-24T23:00:36.311Z,3.57
2023-04-24T23:03:04.602Z,3.87
2023-04-24T23:05:33.955Z,3.63
2023-04-24T23:08:01.820Z,3.50
2023-04-24T23:10:29.901Z,3.97
2023-04-24T23:12:57.779Z,5.07
2023-04-24T23:15:25.784Z,5.00
2023-04-24T23:17:53.825Z,4.40
2023-04-24T23:20:23.103Z,3.97
2023-04-24T23:22:52.454Z,6.40
2023-04-24T23:25:20.406Z,4.57
2023-04-24T23:27:48.229Z,4.53
2023-04-24T23:30:16.116Z,5.93
2023-04-24T23:32:44.790Z,4.73
2023-04-24T23:35:12.701Z,4.20
2023-04-24T23:37:40.598Z,3.87
2023-04-24T23:40:11.044Z,3.60
2023-04-24T23:42:39.058Z,4.33
2023-04-24T23:45:10.584Z,4.40
2023-04-24T23:47:38.546Z,3.87
2023-04-24T23:50:07.328Z,4.37
2023-04-24T23:52:36.401Z,4.43
2023-04-24T23:55:04.934Z,4.27
2023-04-24T23:57:34.167Z,4.50
